createdAt,value
2017-09-16T00:00:03.797Z,3.97
2017-09-16T00:02:31.312Z,3.90
2017-09-16T00:04:58.813Z,4.40
2017-09-16T00:07:26.325Z,3.90
2017-09-16T00:09:53.829Z,4.50
2017-09-16T00:12:21.360Z,4.07
2017-09-16T00:14:49.640Z,3.80
2017-09-16T00:17:17.912Z,4.23
2017-09-16T00:19:45.424Z,5.00
2017-09-16T00:22:12.922Z,4.40
2017-09-16T00:24:40.464Z,4.53
2017-09-16T00:27:07.969Z,3.73
2017-09-16T00:29:35.456Z,3.80
2017-09-16T00:32:02.977Z,4.10
2017-09-16T00:34:30.493Z,3.40
2017-09-16T00:36:58.029Z,3.93
2017-09-16T00:39:25.530Z,4.30
2017-09-16T00:41:53.829Z,3.77
2017-09-16T00:44:21.371Z,3.97
2017-09-16T00:46:49.664Z,3.73
2017-09-16T00:49:17.332Z,4.10
2017-09-16T00:51:44.836Z,4.30
2017-09-16T00:54:12.328Z,4.77
2017-09-16T00:56:40.604Z,5.60
2017-09-16T00:59:08.108Z,3.53
2017-09-16T01:01:35.621Z,4.20
2017-09-16T01:04:03.896Z,4.57
2017-09-16T01:06:31.417Z,4.83
2017-09-16T01:08:58.913Z,4.53
2017-09-16T01:11:26.404Z,4.80
2017-09-16T01:13:53.948Z,4.70
2017-09-16T01:16:21.447Z,5.23
2017-09-16T01:18:48.966Z,5.00
2017-09-16T01:21:16.473Z,5.10
2017-09-16T01:23:44.000Z,4.47
2017-09-16T01:26:11.505Z,5.27
2017-09-16T01:28:39.768Z,5.17
2017-09-16T01:31:07.348Z,4.50
2017-09-16T01:33:34.841Z,4.83
2017-09-16T01:36:02.332Z,5.07
2017-09-16T01:38:29.860Z,5.57
2017-09-16T01:40:57.388Z,5.77
2017-09-16T01:43:24.916Z,3.93
2017-09-16T01:45:53.176Z,5.27
2017-09-16T01:48:20.664Z,5.80
2017-09-16T01:50:48.186Z,5.30
2017-09-16T01:53:15.712Z,5.27
2017-09-16T01:55:43.209Z,5.50
2017-09-16T01:58:10.700Z,5.60
2017-09-16T02:00:38.234Z,5.33
2017-09-16T02:03:06.495Z,5.40
2017-09-16T02:05:33.984Z,5.40
2017-09-16T02:08:01.505Z,6.23
2017-09-16T02:10:29.017Z,5.63
2017-09-16T02:12:56.540Z,4.90
2017-09-16T02:15:24.812Z,4.87
2017-09-16T02:17:53.106Z,5.13
2017-09-16T02:20:21.386Z,4.40
2017-09-16T02:22:48.893Z,4.90
2017-09-16T02:25:16.413Z,4.33
2017-09-16T02:27:43.913Z,4.80
2017-09-16T02:30:11.436Z,5.27
2017-09-16T02:32:38.929Z,5.43
2017-09-16T02:35:06.476Z,5.10
2017-09-16T02:37:33.972Z,5.40
2017-09-16T02:40:02.237Z,6.50
2017-09-16T02:42:29.762Z,4.63
2017-09-16T02:44:57.252Z,5.30
2017-09-16T02:47:25.540Z,6.07
2017-09-16T02:49:53.797Z,4.87
2017-09-16T02:52:21.308Z,4.87
2017-09-16T02:54:48.796Z,4.63
2017-09-16T02:57:16.332Z,5.10
2017-09-16T02:59:43.841Z,5.23
2017-09-16T03:02:12.136Z,5.00
2017-09-16T03:04:40.410Z,4.40
2017-09-16T03:07:07.908Z,4.57
2017-09-16T03:09:35.405Z,4.80
2017-09-16T03:12:03.692Z,4.40
2017-09-16T03:14:31.211Z,4.43
2017-09-16T03:16:58.789Z,4.70
2017-09-16T03:19:27.089Z,5.20
2017-09-16T03:21:54.616Z,5.10
2017-09-16T03:24:22.124Z,5.00
2017-09-16T03:26:49.656Z,4.77
2017-09-16T03:29:17.932Z,4.13
2017-09-16T03:31:46.185Z,3.73
2017-09-16T03:34:13.696Z,4.10
2017-09-16T03:36:41.204Z,3.60
2017-09-16T03:39:09.496Z,4.00
2017-09-16T03:41:36.990Z,5.47
2017-09-16T03:44:04.484Z,6.73
2017-09-16T03:46:31.998Z,5.10
2017-09-16T03:48:59.493Z,6.30
2017-09-16T03:51:27.057Z,8.93
2017-09-16T03:53:54.568Z,7.57
2017-09-16T03:56:22.094Z,8.90
2017-09-16T03:58:50.357Z,9.00
2017-09-16T04:01:30.632Z,11.67
2017-09-16T04:03:58.137Z,10.90
2017-09-16T04:06:25.637Z,10.00
2017-09-16T04:08:53.927Z,10.77
2017-09-16T04:11:21.429Z,11.90
2017-09-16T04:13:48.971Z,11.57
2017-09-16T04:16:16.495Z,13.30
2017-09-16T04:18:43.996Z,12.87
2017-09-16T04:21:11.553Z,11.87
2017-09-16T04:23:39.061Z,13.30
2017-09-16T04:26:07.340Z,12.77
2017-09-16T04:28:34.876Z,13.63
2017-09-16T04:31:03.160Z,9.97
2017-09-16T04:33:31.454Z,8.53
2017-09-16T04:35:58.992Z,9.63
2017-09-16T04:38:27.272Z,11.27
2017-09-16T04:40:55.532Z,9.40
2017-09-16T04:43:23.077Z,11.67
2017-09-16T04:45:50.583Z,10.13
2017-09-16T04:48:18.100Z,7.80
2017-09-16T04:50:46.416Z,10.30
2017-09-16T04:53:13.945Z,9.10
2017-09-16T04:55:42.248Z,7.77
2017-09-16T04:58:09.765Z,7.87
2017-09-16T05:00:37.296Z,10.20
2017-09-16T05:03:04.816Z,10.50
2017-09-16T05:05:32.341Z,8.30
2017-09-16T05:07:59.891Z,9.80
2017-09-16T05:10:27.384Z,8.30
2017-09-16T05:12:54.876Z,9.30
2017-09-16T05:15:22.466Z,8.43
2017-09-16T05:17:49.965Z,8.67
2017-09-16T05:20:17.473Z,10.30
2017-09-16T05:22:44.992Z,6.20
2017-09-16T05:25:12.492Z,9.37
2017-09-16T05:27:40.015Z,7.33
2017-09-16T05:30:07.541Z,8.17
2017-09-16T05:32:35.805Z,9.27
2017-09-16T05:35:04.096Z,8.60
2017-09-16T05:37:31.625Z,9.57
2017-09-16T05:39:59.155Z,10.43
2017-09-16T05:42:26.680Z,9.23
2017-09-16T05:44:54.200Z,11.17
2017-09-16T05:47:21.705Z,8.27
2017-09-16T05:49:49.237Z,11.67
2017-09-16T05:52:17.510Z,11.23
2017-09-16T05:54:45.824Z,11.27
2017-09-16T05:57:13.331Z,7.40
2017-09-16T05:59:41.661Z,9.03
2017-09-16T06:02:09.154Z,8.63
2017-09-16T06:04:36.679Z,9.13
2017-09-16T06:07:04.209Z,6.90
2017-09-16T06:09:31.733Z,9.77
2017-09-16T06:11:59.272Z,9.73
2017-09-16T06:14:26.797Z,6.60
2017-09-16T06:16:54.321Z,7.50
2017-09-16T06:19:22.604Z,10.27
2017-09-16T06:21:50.891Z,8.60
2017-09-16T06:24:18.398Z,7.70
2017-09-16T06:26:45.901Z,9.43
2017-09-16T06:29:13.424Z,7.80
2017-09-16T06:31:40.928Z,7.90
2017-09-16T06:34:08.465Z,10.20
2017-09-16T06:36:35.989Z,8.73
2017-09-16T06:39:03.525Z,7.80
2017-09-16T06:41:31.028Z,8.73
2017-09-16T06:43:59.309Z,7.97
2017-09-16T06:46:27.609Z,8.50
2017-09-16T06:48:55.164Z,9.33
2017-09-16T06:51:22.689Z,8.93
2017-09-16T06:53:50.978Z,7.33
2017-09-16T06:56:19.244Z,8.30
2017-09-16T06:58:47.543Z,8.23
2017-09-16T07:01:15.085Z,8.80
2017-09-16T07:03:43.361Z,9.10
2017-09-16T07:06:10.871Z,8.87
2017-09-16T07:08:38.407Z,9.67
2017-09-16T07:11:05.926Z,8.10
2017-09-16T07:13:34.202Z,7.63
2017-09-16T07:16:02.466Z,9.07
2017-09-16T07:18:29.980Z,7.00
2017-09-16T07:20:57.509Z,8.23
2017-09-16T07:23:25.045Z,7.90
2017-09-16T07:25:53.314Z,8.30
2017-09-16T07:28:20.858Z,8.30
2017-09-16T07:30:49.171Z,7.47
2017-09-16T07:33:16.676Z,7.73
2017-09-16T07:35:44.236Z,8.20
2017-09-16T07:38:11.756Z,7.50
2017-09-16T07:40:39.284Z,6.20
2017-09-16T07:43:07.572Z,6.53
2017-09-16T07:45:35.891Z,8.40
2017-09-16T07:48:03.396Z,7.00
2017-09-16T07:50:31.713Z,5.97
2017-09-16T07:52:59.268Z,6.60
2017-09-16T07:55:26.784Z,6.10
2017-09-16T07:57:55.069Z,7.77
2017-09-16T08:00:23.376Z,7.00
2017-09-16T08:02:51.144Z,5.37
2017-09-16T08:05:18.674Z,6.40
2017-09-16T08:07:46.983Z,6.87
2017-09-16T08:10:14.738Z,6.50
2017-09-16T08:12:42.515Z,5.47
2017-09-16T08:15:10.337Z,6.90
2017-09-16T08:17:37.948Z,6.80
2017-09-16T08:20:06.407Z,6.83
2017-09-16T08:22:33.934Z,7.47
2017-09-16T08:25:02.329Z,7.53
2017-09-16T08:27:29.852Z,5.73
2017-09-16T08:29:57.346Z,6.40
2017-09-16T08:32:24.889Z,6.17
2017-09-16T08:34:53.164Z,6.07
2017-09-16T08:37:21.456Z,6.33
2017-09-16T08:39:48.973Z,7.60
2017-09-16T08:42:16.472Z,7.03
2017-09-16T08:44:43.997Z,6.47
2017-09-16T08:47:12.254Z,5.97
2017-09-16T08:49:39.793Z,5.20
2017-09-16T08:52:07.377Z,5.70
2017-09-16T08:54:34.900Z,5.67
2017-09-16T08:57:02.399Z,6.00
2017-09-16T08:59:30.702Z,5.83
2017-09-16T09:01:58.241Z,5.60
2017-09-16T09:04:26.508Z,5.17
2017-09-16T09:06:54.805Z,5.37
2017-09-16T09:09:22.313Z,4.97
2017-09-16T09:11:49.801Z,5.90
2017-09-16T09:14:18.113Z,5.00
2017-09-16T09:16:45.648Z,5.00
2017-09-16T09:19:13.912Z,5.23
2017-09-16T09:21:42.228Z,5.47
2017-09-16T09:24:09.732Z,5.23
2017-09-16T09:26:37.246Z,5.23
2017-09-16T09:29:04.761Z,5.27
2017-09-16T09:31:33.064Z,5.40
2017-09-16T09:34:00.625Z,5.57
2017-09-16T09:36:28.129Z,4.90
2017-09-16T09:38:55.641Z,5.00
2017-09-16T09:41:23.173Z,4.60
2017-09-16T09:43:51.455Z,4.63
2017-09-16T09:46:18.940Z,4.67
2017-09-16T09:48:46.449Z,5.00
2017-09-16T09:51:13.969Z,4.70
2017-09-16T09:53:41.525Z,4.17
2017-09-16T09:56:09.009Z,3.57
2017-09-16T09:58:37.342Z,4.80
2017-09-16T10:01:04.908Z,5.33
2017-09-16T10:03:32.404Z,4.20
2017-09-16T10:06:01.482Z,4.70
2017-09-16T10:08:28.985Z,4.60
2017-09-16T10:10:57.364Z,3.90
2017-09-16T10:13:25.633Z,3.50
2017-09-16T10:15:53.160Z,3.60
2017-09-16T10:18:20.702Z,4.10
2017-09-16T10:20:48.201Z,4.03
2017-09-16T10:23:16.495Z,3.53
2017-09-16T10:25:43.996Z,3.30
2017-09-16T10:28:11.541Z,4.20
2017-09-16T10:30:39.051Z,3.70
2017-09-16T10:33:06.632Z,3.27
2017-09-16T10:35:34.152Z,2.90
2017-09-16T10:38:01.707Z,3.40
2017-09-16T10:40:30.731Z,2.70
2017-09-16T10:42:58.991Z,2.50
2017-09-16T10:45:27.886Z,3.60
2017-09-16T10:47:56.160Z,2.27
2017-09-16T10:50:24.443Z,2.57
2017-09-16T10:52:52.721Z,2.50
2017-09-16T10:55:21.052Z,3.07
2017-09-16T10:57:48.625Z,2.23
2017-09-16T11:00:16.124Z,2.23
2017-09-16T11:02:43.616Z,1.80
2017-09-16T11:05:11.239Z,2.27
2017-09-16T11:07:38.813Z,2.30
2017-09-16T11:10:06.314Z,1.93
2017-09-16T11:12:33.873Z,2.20
2017-09-16T11:15:01.403Z,2.80
2017-09-16T11:17:28.922Z,2.47
2017-09-16T11:19:56.482Z,2.10
2017-09-16T11:22:23.993Z,2.03
2017-09-16T11:24:51.532Z,2.43
2017-09-16T11:27:19.066Z,2.20
2017-09-16T11:29:46.597Z,1.53
2017-09-16T11:32:14.855Z,2.00
2017-09-16T11:34:42.417Z,1.60
2017-09-16T11:37:09.925Z,2.47
2017-09-16T11:39:37.437Z,2.17
2017-09-16T11:42:05.797Z,1.67
2017-09-16T11:44:34.235Z,2.13
2017-09-16T11:47:01.883Z,2.00
2017-09-16T11:49:29.380Z,1.77
2017-09-16T11:51:56.932Z,2.27
2017-09-16T11:54:24.420Z,1.87
2017-09-16T11:56:51.971Z,1.53
2017-09-16T11:59:19.464Z,1.80
2017-09-16T12:01:46.988Z,1.80
2017-09-16T12:04:14.545Z,1.70
2017-09-16T12:06:42.814Z,1.30
2017-09-16T12:09:10.371Z,1.90
2017-09-16T12:11:37.912Z,1.93
2017-09-16T12:14:05.415Z,1.60
2017-09-16T12:16:33.752Z,1.97
2017-09-16T12:19:01.277Z,1.53
2017-09-16T12:21:28.866Z,1.63
2017-09-16T12:23:56.387Z,1.63
2017-09-16T12:26:23.892Z,1.73
2017-09-16T12:28:52.209Z,1.97
2017-09-16T12:31:20.474Z,1.80
2017-09-16T12:33:48.806Z,1.90
2017-09-16T12:36:16.312Z,2.13
2017-09-16T12:38:44.580Z,1.60
2017-09-16T12:41:12.990Z,1.80
2017-09-16T12:43:40.485Z,2.27
2017-09-16T12:46:08.058Z,1.90
2017-09-16T12:48:35.567Z,2.30
2017-09-16T12:51:03.070Z,1.77
2017-09-16T12:53:30.636Z,1.57
2017-09-16T12:55:58.153Z,1.30
2017-09-16T12:58:25.665Z,1.63
2017-09-16T13:00:53.952Z,1.63
2017-09-16T13:03:22.235Z,1.70
2017-09-16T13:05:49.759Z,1.70
2017-09-16T13:08:18.029Z,1.60
2017-09-16T13:10:46.333Z,1.70
2017-09-16T13:13:14.672Z,2.67
2017-09-16T13:15:42.944Z,3.90
2017-09-16T13:18:10.484Z,3.23
2017-09-16T13:20:39.584Z,2.17
2017-09-16T13:23:07.076Z,3.00
2017-09-16T13:25:34.611Z,5.90
2017-09-16T13:28:02.126Z,4.33
2017-09-16T13:30:29.629Z,3.80
2017-09-16T13:32:57.157Z,4.70
2017-09-16T13:35:24.661Z,3.60
2017-09-16T13:37:52.241Z,2.70
2017-09-16T13:40:20.510Z,2.50
2017-09-16T13:42:48.828Z,3.30
2017-09-16T13:45:16.325Z,3.60
2017-09-16T13:47:44.685Z,2.83
2017-09-16T13:50:12.197Z,1.90
2017-09-16T13:52:39.750Z,2.93
2017-09-16T13:55:07.254Z,2.33
2017-09-16T13:57:34.821Z,2.30
2017-09-16T14:00:02.354Z,2.00
2017-09-16T14:02:29.869Z,1.47
2017-09-16T14:04:58.209Z,1.10
2017-09-16T14:07:25.717Z,1.57
2017-09-16T14:09:53.238Z,1.50
2017-09-16T14:12:22.309Z,1.40
2017-09-16T14:14:49.803Z,1.03
2017-09-16T14:17:18.150Z,1.80
2017-09-16T14:19:45.681Z,1.70
2017-09-16T14:22:13.330Z,1.50
2017-09-16T14:24:40.844Z,1.67
2017-09-16T14:27:09.257Z,1.10
2017-09-16T14:29:36.752Z,1.10
2017-09-16T14:32:04.249Z,1.30
2017-09-16T14:34:31.931Z,1.10
2017-09-16T14:36:59.628Z,1.13
2017-09-16T14:39:27.124Z,1.40
2017-09-16T14:41:55.482Z,1.30
2017-09-16T14:44:23.093Z,1.10
2017-09-16T14:46:50.603Z,1.30
2017-09-16T14:49:18.301Z,1.50
2017-09-16T14:51:45.810Z,1.60
2017-09-16T14:54:13.439Z,2.00
2017-09-16T14:56:40.940Z,1.57
2017-09-16T14:59:08.441Z,1.87
2017-09-16T15:01:35.994Z,2.00
2017-09-16T15:04:03.492Z,2.20
2017-09-16T15:06:30.998Z,1.60
2017-09-16T15:08:59.396Z,1.33
2017-09-16T15:11:26.994Z,1.67
2017-09-16T15:13:54.572Z,1.27
2017-09-16T15:16:22.181Z,1.20
2017-09-16T15:18:49.785Z,1.10
2017-09-16T15:21:17.497Z,1.37
2017-09-16T15:23:45.016Z,1.80
2017-09-16T15:26:12.514Z,1.30
2017-09-16T15:28:40.163Z,1.70
2017-09-16T15:31:07.748Z,1.50
2017-09-16T15:33:35.393Z,1.70
2017-09-16T15:36:02.978Z,1.83
2017-09-16T15:38:30.603Z,1.90
2017-09-16T15:40:58.165Z,1.63
2017-09-16T15:43:25.849Z,1.60
2017-09-16T15:45:53.353Z,2.00
2017-09-16T15:48:20.879Z,2.30
2017-09-16T15:50:48.509Z,3.20
2017-09-16T15:53:16.028Z,3.20
2017-09-16T15:55:44.445Z,3.03
2017-09-16T15:58:11.933Z,3.33
2017-09-16T16:00:39.680Z,3.77
2017-09-16T16:03:07.238Z,3.70
2017-09-16T16:05:34.794Z,2.93
2017-09-16T16:08:02.379Z,3.60
2017-09-16T16:10:29.888Z,2.97
2017-09-16T16:12:57.553Z,2.80
2017-09-16T16:15:25.064Z,2.97
2017-09-16T16:17:52.778Z,3.47
2017-09-16T16:20:20.272Z,2.60
2017-09-16T16:22:47.768Z,2.20
2017-09-16T16:25:16.174Z,3.23
2017-09-16T16:27:43.689Z,3.00
2017-09-16T16:30:12.029Z,2.30
2017-09-16T16:32:39.528Z,3.23
2017-09-16T16:35:07.983Z,3.47
2017-09-16T16:37:35.498Z,3.67
2017-09-16T16:40:03.027Z,3.50
2017-09-16T16:42:31.532Z,5.10
2017-09-16T16:44:59.033Z,4.13
2017-09-16T16:47:26.648Z,4.10
2017-09-16T16:49:54.146Z,5.07
2017-09-16T16:52:21.667Z,3.93
2017-09-16T16:54:49.335Z,3.50
2017-09-16T16:57:16.835Z,3.70
2017-09-16T16:59:45.256Z,4.30
2017-09-16T17:02:12.758Z,3.60
2017-09-16T17:04:40.389Z,4.03
2017-09-16T17:07:07.887Z,4.70
2017-09-16T17:09:35.391Z,4.57
2017-09-16T17:12:03.052Z,4.27
2017-09-16T17:14:30.541Z,3.50
2017-09-16T17:16:58.165Z,3.13
2017-09-16T17:19:25.669Z,4.70
2017-09-16T17:21:53.184Z,3.20
2017-09-16T17:24:20.832Z,3.17
2017-09-16T17:26:49.113Z,2.77
2017-09-16T17:29:16.790Z,2.93
2017-09-16T17:31:44.293Z,2.37
2017-09-16T17:34:13.314Z,2.50
2017-09-16T17:36:41.726Z,3.13
2017-09-16T17:39:09.298Z,2.80
2017-09-16T17:41:37.306Z,2.40
2017-09-16T17:44:05.580Z,2.60
2017-09-16T17:46:33.284Z,2.17
2017-09-16T17:49:00.780Z,2.97
2017-09-16T17:51:28.512Z,2.20
2017-09-16T17:53:56.024Z,2.70
2017-09-16T17:56:24.292Z,2.30
2017-09-16T17:58:52.661Z,4.17
2017-09-16T18:01:20.175Z,3.10
2017-09-16T18:03:47.809Z,2.60
2017-09-16T18:06:15.321Z,2.50
2017-09-16T18:08:43.032Z,3.10
2017-09-16T18:11:10.536Z,2.87
2017-09-16T18:13:38.141Z,2.50
2017-09-16T18:16:06.532Z,2.87
2017-09-16T18:18:34.189Z,3.53
2017-09-16T18:21:01.840Z,3.60
2017-09-16T18:23:30.104Z,4.87
2017-09-16T18:25:58.512Z,5.77
2017-09-16T18:28:26.022Z,6.20
2017-09-16T18:30:53.725Z,4.80
2017-09-16T18:33:21.248Z,5.43
2017-09-16T18:35:50.360Z,5.30
2017-09-16T18:38:18.701Z,6.07
2017-09-16T18:40:46.216Z,6.53
2017-09-16T18:43:14.004Z,5.03
2017-09-16T18:45:41.638Z,5.70
2017-09-16T18:48:09.161Z,6.13
2017-09-16T18:50:36.857Z,6.80
2017-09-16T18:53:04.528Z,7.27
2017-09-16T18:55:32.048Z,6.40
2017-09-16T18:58:00.432Z,6.43
2017-09-16T19:00:28.697Z,6.63
2017-09-16T19:02:57.213Z,6.00
2017-09-16T19:05:24.732Z,6.70
2017-09-16T19:07:52.438Z,7.03
2017-09-16T19:10:20.105Z,6.20
2017-09-16T19:12:47.760Z,5.60
2017-09-16T19:15:15.522Z,5.53
2017-09-16T19:17:43.069Z,5.10
2017-09-16T19:20:10.746Z,6.87
2017-09-16T19:22:38.260Z,7.73
2017-09-16T19:25:06.784Z,7.00
2017-09-16T19:27:34.453Z,7.73
2017-09-16T19:30:01.978Z,6.00
2017-09-16T19:32:29.670Z,6.07
2017-09-16T19:34:57.198Z,6.43
2017-09-16T19:37:24.897Z,6.90
2017-09-16T19:39:52.404Z,6.80
2017-09-16T19:42:20.928Z,6.80
2017-09-16T19:44:48.588Z,8.60
2017-09-16T19:47:16.127Z,6.50
2017-09-16T19:49:43.804Z,6.43
2017-09-16T19:52:11.342Z,6.63
2017-09-16T19:54:38.939Z,6.50
2017-09-16T19:57:06.570Z,5.33
2017-09-16T19:59:34.217Z,7.73
2017-09-16T20:02:01.717Z,6.93
2017-09-16T20:04:29.205Z,5.93
2017-09-16T20:06:57.604Z,6.43
2017-09-16T20:09:25.876Z,6.73
2017-09-16T20:11:54.378Z,6.70
2017-09-16T20:14:21.889Z,7.40
2017-09-16T20:16:50.169Z,6.13
2017-09-16T20:19:17.910Z,6.43
2017-09-16T20:21:45.528Z,6.00
2017-09-16T20:24:13.059Z,6.17
2017-09-16T20:26:40.768Z,5.80
2017-09-16T20:29:08.413Z,6.50
2017-09-16T20:31:35.930Z,7.10
2017-09-16T20:34:04.061Z,7.60
2017-09-16T20:36:31.584Z,7.57
2017-09-16T20:38:59.258Z,7.27
2017-09-16T20:41:26.957Z,8.00
2017-09-16T20:43:56.273Z,6.63
2017-09-16T20:46:23.873Z,7.20
2017-09-16T20:48:51.408Z,6.83
2017-09-16T20:51:19.930Z,6.20
2017-09-16T20:53:47.429Z,7.23
2017-09-16T20:56:14.928Z,6.63
2017-09-16T20:58:42.602Z,8.27
2017-09-16T21:01:10.117Z,9.20
2017-09-16T21:03:37.796Z,9.10
2017-09-16T21:06:05.303Z,7.83
2017-09-16T21:08:32.816Z,7.90
2017-09-16T21:11:00.492Z,8.97
2017-09-16T21:13:27.986Z,7.90
2017-09-16T21:15:55.637Z,7.30
2017-09-16T21:18:23.150Z,8.33
2017-09-16T21:20:50.823Z,7.60
2017-09-16T21:23:18.371Z,8.73
2017-09-16T21:25:45.953Z,8.13
2017-09-16T21:28:13.462Z,8.03
2017-09-16T21:30:41.886Z,7.70
2017-09-16T21:33:09.400Z,6.80
2017-09-16T21:35:37.931Z,7.60
2017-09-16T21:38:05.526Z,7.00
2017-09-16T21:40:33.028Z,6.33
2017-09-16T21:43:00.566Z,6.70
2017-09-16T21:45:28.929Z,8.23
2017-09-16T21:47:57.197Z,6.90
2017-09-16T21:50:24.829Z,7.50
2017-09-16T21:52:52.367Z,8.33
2017-09-16T21:55:19.870Z,7.43
2017-09-16T21:57:47.496Z,8.90
2017-09-16T22:00:15.014Z,8.70
2017-09-16T22:02:43.329Z,7.70
2017-09-16T22:05:10.821Z,7.67
2017-09-16T22:07:38.436Z,8.23
2017-09-16T22:10:05.945Z,7.30
2017-09-16T22:12:33.454Z,7.03
2017-09-16T22:15:01.048Z,6.97
2017-09-16T22:17:28.560Z,6.40
2017-09-16T22:19:56.145Z,7.50
2017-09-16T22:22:23.653Z,6.83
2017-09-16T22:24:51.993Z,7.90
2017-09-16T22:27:19.488Z,6.33
2017-09-16T22:29:47.750Z,6.60
2017-09-16T22:32:15.277Z,6.13
2017-09-16T22:34:42.772Z,7.10
2017-09-16T22:37:11.095Z,10.07
2017-09-16T22:39:38.605Z,8.20
2017-09-16T22:42:06.871Z,8.47
2017-09-16T22:44:34.409Z,7.77
2017-09-16T22:47:02.035Z,7.63
2017-09-16T22:49:29.575Z,7.90
2017-09-16T22:51:57.073Z,7.77
2017-09-16T22:54:24.616Z,8.00
2017-09-16T22:56:52.132Z,7.73
2017-09-16T22:59:20.413Z,8.50
2017-09-16T23:01:48.719Z,7.47
2017-09-16T23:04:16.212Z,7.20
2017-09-16T23:06:43.721Z,8.30
2017-09-16T23:09:11.245Z,8.03
2017-09-16T23:11:38.772Z,8.13
2017-09-16T23:14:06.285Z,8.07
2017-09-16T23:16:33.811Z,6.87
2017-09-16T23:19:01.410Z,7.03
2017-09-16T23:21:28.933Z,7.90
2017-09-16T23:23:57.253Z,7.80
2017-09-16T23:26:24.777Z,7.70
2017-09-16T23:28:53.045Z,7.30
2017-09-16T23:31:21.341Z,7.67
2017-09-16T23:33:48.838Z,6.90
2017-09-16T23:36:16.382Z,6.43
2017-09-16T23:38:43.873Z,7.27
2017-09-16T23:41:11.392Z,8.90
2017-09-16T23:43:38.897Z,9.10
2017-09-16T23:46:06.438Z,7.70
2017-09-16T23:48:33.933Z,8.40
2017-09-16T23:51:02.192Z,8.13
2017-09-16T23:53:29.730Z,8.20
2017-09-16T23:55:57.223Z,8.13
2017-09-16T23:58:25.517Z,8.10
